createdAt,value
2018-07-22T00:00:46.425Z,90.24
2018-07-22T00:03:15.759Z,90.38
2018-07-22T00:05:45.107Z,90.61
2018-07-22T00:08:14.468Z,90.53
2018-07-22T00:10:43.817Z,89.92
2018-07-22T00:13:13.150Z,90.67
2018-07-22T00:15:42.507Z,90.22
2018-07-22T00:18:11.834Z,90.32
2018-07-22T00:20:41.179Z,90.09
2018-07-22T00:23:10.279Z,90.40
2018-07-22T00:25:39.631Z,89.57
2018-07-22T00:28:08.951Z,89.50
2018-07-22T00:30:38.303Z,90.36
2018-07-22T00:33:07.683Z,90.04
2018-07-22T00:35:37.038Z,89.51
2018-07-22T00:38:06.431Z,89.20
2018-07-22T00:40:35.787Z,89.45
2018-07-22T00:43:05.143Z,89.36
2018-07-22T00:45:34.483Z,89.62
2018-07-22T00:48:03.590Z,89.60
2018-07-22T00:50:32.934Z,89.24
2018-07-22T00:53:02.311Z,88.83
2018-07-22T00:55:31.673Z,89.00
2018-07-22T00:58:01.019Z,88.62
2018-07-22T01:00:30.369Z,89.47
2018-07-22T01:02:59.797Z,89.42
2018-07-22T01:05:29.413Z,88.87
2018-07-22T01:07:58.764Z,89.33
2018-07-22T01:10:28.099Z,89.30
2018-07-22T01:12:57.472Z,88.86
2018-07-22T01:15:26.817Z,89.45
2018-07-22T01:17:56.179Z,88.88
2018-07-22T01:20:25.508Z,88.11
2018-07-22T01:22:54.850Z,88.33
2018-07-22T01:25:24.179Z,89.00
2018-07-22T01:27:53.544Z,89.09
2018-07-22T01:30:22.872Z,89.13
2018-07-22T01:32:52.228Z,88.72
2018-07-22T01:35:21.585Z,89.04
2018-07-22T01:37:50.936Z,89.05
2018-07-22T01:40:20.262Z,88.96
2018-07-22T01:42:49.602Z,88.80
2018-07-22T01:45:18.739Z,89.24
2018-07-22T01:47:48.083Z,88.84
2018-07-22T01:50:17.424Z,88.60
2018-07-22T01:52:46.779Z,89.22
2018-07-22T01:55:16.116Z,88.63
2018-07-22T01:57:45.465Z,88.37
2018-07-22T02:00:14.820Z,88.66
2018-07-22T02:02:44.742Z,89.23
2018-07-22T02:05:14.087Z,88.63
2018-07-22T02:07:43.676Z,88.87
2018-07-22T02:10:13.520Z,88.62
2018-07-22T02:12:42.858Z,88.57
2018-07-22T02:15:12.219Z,88.87
2018-07-22T02:17:41.548Z,89.06
2018-07-22T02:20:10.885Z,88.86
2018-07-22T02:22:40.285Z,89.24
2018-07-22T02:25:09.379Z,89.88
2018-07-22T02:27:38.742Z,88.82
2018-07-22T02:30:10.017Z,89.04
2018-07-22T02:32:39.363Z,88.00
2018-07-22T02:35:08.696Z,88.49
2018-07-22T02:37:38.045Z,88.13
2018-07-22T02:40:08.623Z,88.19
2018-07-22T02:42:38.138Z,88.11
2018-07-22T02:45:07.490Z,88.23
2018-07-22T02:47:36.838Z,88.15
2018-07-22T02:50:06.221Z,88.04
2018-07-22T02:52:35.314Z,88.11
2018-07-22T02:55:04.443Z,87.97
2018-07-22T02:57:33.784Z,88.43
2018-07-22T03:00:03.202Z,88.72
2018-07-22T03:02:32.578Z,88.35
2018-07-22T03:05:01.972Z,88.70
2018-07-22T03:07:31.338Z,88.45
2018-07-22T03:10:00.726Z,88.39
2018-07-22T03:12:30.118Z,88.60
2018-07-22T03:14:59.488Z,88.43
2018-07-22T03:17:28.882Z,88.58
2018-07-22T03:19:58.263Z,88.29
2018-07-22T03:22:27.645Z,88.71
2018-07-22T03:24:57.026Z,88.47
2018-07-22T03:27:26.384Z,88.16
2018-07-22T03:29:55.783Z,89.15
2018-07-22T03:32:25.161Z,89.70
2018-07-22T03:34:54.550Z,89.67
2018-07-22T03:37:23.663Z,89.40
2018-07-22T03:39:53.064Z,90.05
2018-07-22T03:42:22.429Z,89.46
2018-07-22T03:44:51.825Z,89.20
2018-07-22T03:47:21.242Z,88.65
2018-07-22T03:49:50.569Z,89.97
2018-07-22T03:52:19.993Z,89.89
2018-07-22T03:54:49.469Z,89.17
2018-07-22T03:57:18.866Z,88.76
2018-07-22T03:59:48.003Z,89.14
2018-07-22T04:02:17.376Z,88.62
2018-07-22T04:04:46.766Z,88.96
2018-07-22T04:07:16.137Z,88.75
2018-07-22T04:09:45.527Z,87.08
2018-07-22T04:12:14.884Z,88.29
2018-07-22T04:14:44.257Z,88.56
2018-07-22T04:17:13.614Z,88.76
2018-07-22T04:19:43.044Z,88.66
2018-07-22T04:22:12.429Z,88.11
2018-07-22T04:24:41.800Z,88.57
2018-07-22T04:27:11.163Z,88.74
2018-07-22T04:29:40.295Z,89.05
2018-07-22T04:32:09.661Z,88.69
2018-07-22T04:34:39.029Z,88.22
2018-07-22T04:37:08.401Z,89.07
2018-07-22T04:39:37.771Z,88.82
2018-07-22T04:42:08.146Z,87.96
2018-07-22T04:44:37.520Z,88.49
2018-07-22T04:47:06.897Z,88.80
2018-07-22T04:49:36.029Z,89.26
2018-07-22T04:52:05.400Z,89.19
2018-07-22T04:54:34.515Z,89.22
2018-07-22T04:57:03.905Z,89.99
2018-07-22T04:59:33.353Z,89.09
2018-07-22T05:02:02.744Z,90.02
2018-07-22T05:04:32.104Z,90.25
2018-07-22T05:07:01.249Z,90.31
2018-07-22T05:09:30.607Z,89.85
2018-07-22T05:12:00.010Z,89.82
2018-07-22T05:14:29.372Z,90.40
2018-07-22T05:16:58.748Z,89.69
2018-07-22T05:19:28.128Z,89.54
2018-07-22T05:21:57.516Z,89.21
2018-07-22T05:24:26.861Z,88.26
2018-07-22T05:26:56.233Z,88.24
2018-07-22T05:29:25.600Z,88.42
2018-07-22T05:31:54.720Z,88.87
2018-07-22T05:34:24.113Z,89.11
2018-07-22T05:36:53.521Z,88.63
2018-07-22T05:39:22.932Z,89.56
2018-07-22T05:41:52.325Z,89.51
2018-07-22T05:44:21.794Z,89.48
2018-07-22T05:46:51.169Z,88.94
2018-07-22T05:49:20.565Z,89.95
2018-07-22T05:51:49.987Z,89.93
2018-07-22T05:54:19.451Z,89.45
2018-07-22T05:56:48.853Z,90.16
2018-07-22T05:59:18.221Z,90.08
2018-07-22T06:01:47.591Z,90.43
2018-07-22T06:04:16.960Z,90.98
2018-07-22T06:06:46.337Z,90.88
2018-07-22T06:09:15.460Z,90.95
2018-07-22T06:11:44.839Z,89.41
2018-07-22T06:14:14.197Z,89.42
2018-07-22T06:16:43.665Z,90.12
2018-07-22T06:19:12.948Z,90.51
2018-07-22T06:21:42.313Z,89.64
2018-07-22T06:24:11.675Z,89.36
2018-07-22T06:26:41.053Z,89.05
2018-07-22T06:29:10.416Z,89.19
2018-07-22T06:31:39.776Z,88.89
2018-07-22T06:34:09.486Z,88.58
2018-07-22T06:36:38.869Z,88.53
2018-07-22T06:39:11.045Z,88.52
2018-07-22T06:41:40.860Z,87.88
2018-07-22T06:44:10.462Z,87.73
2018-07-22T06:46:39.883Z,88.09
2018-07-22T06:49:09.582Z,88.26
2018-07-22T06:51:38.943Z,87.34
2018-07-22T06:54:09.521Z,87.74
2018-07-22T06:56:38.879Z,88.26
2018-07-22T06:59:08.268Z,87.84
2018-07-22T07:01:37.628Z,87.05
2018-07-22T07:04:07.017Z,87.18
2018-07-22T07:06:36.394Z,86.44
2018-07-22T07:09:08.535Z,86.36
2018-07-22T07:11:38.015Z,86.71
2018-07-22T07:14:07.392Z,86.66
2018-07-22T07:16:37.000Z,88.18
2018-07-22T07:19:06.394Z,87.78
2018-07-22T07:21:35.751Z,87.72
2018-07-22T07:24:04.879Z,86.58
2018-07-22T07:26:34.266Z,87.29
2018-07-22T07:29:03.603Z,87.03
2018-07-22T07:31:32.947Z,86.36
2018-07-22T07:34:02.317Z,87.12
2018-07-22T07:36:31.692Z,85.93
2018-07-22T07:39:01.068Z,85.85
2018-07-22T07:41:30.423Z,85.93
2018-07-22T07:43:59.776Z,86.23
2018-07-22T07:46:28.868Z,87.23
2018-07-22T07:48:57.965Z,87.77
2018-07-22T07:51:27.060Z,87.06
2018-07-22T07:53:56.163Z,86.69
2018-07-22T07:56:25.515Z,87.11
2018-07-22T07:58:54.876Z,85.38
2018-07-22T08:01:24.261Z,85.06
2018-07-22T08:03:53.420Z,84.48
2018-07-22T08:06:22.741Z,84.45
2018-07-22T08:08:52.101Z,84.60
2018-07-22T08:11:21.449Z,85.91
2018-07-22T08:13:50.560Z,85.09
2018-07-22T08:16:19.896Z,85.33
2018-07-22T08:18:49.259Z,84.51
2018-07-22T08:21:18.348Z,85.36
2018-07-22T08:23:47.688Z,86.59
2018-07-22T08:26:17.032Z,86.71
2018-07-22T08:29:05.248Z,86.14
2018-07-22T08:31:34.596Z,85.01
2018-07-22T08:34:03.936Z,86.09
2018-07-22T08:36:33.280Z,85.69
2018-07-22T08:39:02.631Z,85.02
2018-07-22T08:41:31.991Z,85.00
2018-07-22T08:44:01.371Z,85.92
2018-07-22T08:46:30.750Z,85.38
2018-07-22T08:49:00.105Z,86.31
2018-07-22T08:51:29.965Z,87.35
2018-07-22T08:53:59.325Z,86.76
2018-07-22T08:56:28.685Z,86.73
2018-07-22T08:58:58.310Z,86.11
2018-07-22T09:01:28.161Z,86.46
2018-07-22T09:03:57.554Z,86.36
2018-07-22T09:06:27.484Z,86.57
2018-07-22T09:08:56.952Z,85.72
2018-07-22T09:11:26.412Z,84.15
2018-07-22T09:13:56.515Z,83.19
2018-07-22T09:16:25.989Z,83.64
2018-07-22T09:18:55.131Z,83.92
2018-07-22T09:21:24.556Z,84.71
2018-07-22T09:23:53.960Z,84.80
2018-07-22T09:26:23.479Z,85.11
2018-07-22T09:28:52.884Z,84.79
2018-07-22T09:31:22.289Z,84.44
2018-07-22T09:33:51.415Z,84.35
2018-07-22T09:36:20.831Z,83.18
2018-07-22T09:38:50.204Z,83.27
2018-07-22T09:41:19.348Z,82.80
2018-07-22T09:43:48.812Z,83.04
2018-07-22T09:46:18.209Z,83.31
2018-07-22T09:48:47.607Z,83.01
2018-07-22T09:51:17.000Z,83.16
2018-07-22T09:53:46.419Z,84.09
2018-07-22T09:56:15.543Z,98.72
2018-07-22T09:58:44.930Z,85.92
2018-07-22T10:01:14.301Z,85.57
2018-07-22T10:03:43.405Z,85.27
2018-07-22T10:06:12.767Z,86.22
2018-07-22T10:08:42.127Z,86.21
2018-07-22T10:11:11.509Z,86.73
2018-07-22T10:13:40.604Z,87.14
2018-07-22T10:16:09.953Z,87.99
2018-07-22T10:18:39.294Z,87.97
2018-07-22T10:21:08.400Z,88.59
2018-07-22T10:23:37.753Z,88.38
2018-07-22T10:26:07.125Z,87.37
2018-07-22T10:28:36.479Z,88.74
2018-07-22T10:31:05.847Z,88.84
2018-07-22T10:33:35.195Z,88.30
2018-07-22T10:36:04.303Z,88.77
2018-07-22T10:38:33.407Z,88.67
2018-07-22T10:41:02.791Z,88.64
2018-07-22T10:43:32.129Z,87.97
2018-07-22T10:46:01.540Z,87.86
2018-07-22T10:48:30.888Z,87.35
2018-07-22T10:51:00.073Z,87.64
2018-07-22T10:53:29.397Z,86.84
2018-07-22T10:55:58.740Z,87.94
2018-07-22T10:58:28.108Z,88.28
2018-07-22T11:00:57.505Z,87.43
2018-07-22T11:03:26.935Z,87.11
2018-07-22T11:05:56.260Z,86.94
2018-07-22T11:08:25.603Z,86.60
2018-07-22T11:10:54.707Z,86.68
2018-07-22T11:13:24.059Z,86.27
2018-07-22T11:15:53.437Z,85.24
2018-07-22T11:18:22.812Z,85.64
2018-07-22T11:20:52.232Z,85.56
2018-07-22T11:23:21.312Z,86.82
2018-07-22T11:25:50.662Z,84.66
2018-07-22T11:28:20.030Z,84.25
2018-07-22T11:30:49.388Z,85.04
2018-07-22T11:33:18.759Z,84.62
2018-07-22T11:35:48.120Z,85.60
2018-07-22T11:38:17.477Z,85.88
2018-07-22T11:40:46.824Z,85.83
2018-07-22T11:43:16.189Z,86.20
2018-07-22T11:45:45.539Z,86.32
2018-07-22T11:48:14.895Z,85.37
2018-07-22T11:50:44.317Z,84.13
2018-07-22T11:53:13.628Z,83.83
2018-07-22T11:55:43.000Z,84.93
2018-07-22T11:58:12.359Z,86.10
2018-07-22T12:00:43.481Z,84.80
2018-07-22T12:03:12.857Z,84.83
2018-07-22T12:05:41.982Z,85.58
2018-07-22T12:08:11.372Z,85.87
2018-07-22T12:10:40.784Z,84.51
2018-07-22T12:13:10.184Z,84.24
2018-07-22T12:15:39.604Z,84.58
2018-07-22T12:18:09.599Z,84.84
2018-07-22T12:20:38.971Z,84.73
2018-07-22T12:23:08.374Z,83.81
2018-07-22T12:25:37.775Z,82.66
2018-07-22T12:28:06.959Z,82.56
2018-07-22T12:30:36.283Z,84.32
2018-07-22T12:33:05.734Z,82.05
2018-07-22T12:35:35.105Z,83.06
2018-07-22T12:38:04.524Z,81.94
2018-07-22T12:40:33.913Z,80.82
2018-07-22T12:43:03.295Z,82.11
2018-07-22T12:45:32.676Z,80.71
2018-07-22T12:48:02.145Z,81.40
2018-07-22T12:50:31.522Z,81.52
2018-07-22T12:53:00.917Z,81.34
2018-07-22T12:55:30.292Z,82.30
2018-07-22T12:57:59.705Z,81.58
2018-07-22T13:00:28.832Z,81.25
2018-07-22T13:02:58.215Z,81.69
2018-07-22T13:05:27.571Z,83.03
2018-07-22T13:07:56.958Z,82.36
2018-07-22T13:10:26.324Z,82.59
2018-07-22T13:12:55.777Z,82.89
2018-07-22T13:15:25.123Z,83.26
2018-07-22T13:17:54.504Z,83.48
2018-07-22T13:20:23.892Z,83.57
2018-07-22T13:22:53.293Z,83.90
2018-07-22T13:25:22.656Z,83.85
2018-07-22T13:27:52.026Z,84.90
2018-07-22T13:30:21.130Z,83.64
2018-07-22T13:32:50.490Z,83.91
2018-07-22T13:35:19.877Z,82.90
2018-07-22T13:37:49.238Z,82.85
2018-07-22T13:40:18.602Z,83.43
2018-07-22T13:42:47.948Z,82.78
2018-07-22T13:45:17.346Z,83.18
2018-07-22T13:47:46.654Z,83.37
2018-07-22T13:50:16.019Z,83.60
2018-07-22T13:52:45.375Z,83.57
2018-07-22T13:55:14.743Z,84.24
2018-07-22T13:57:44.107Z,83.53
2018-07-22T14:00:13.553Z,83.82
2018-07-22T14:02:42.854Z,84.15
2018-07-22T14:05:12.227Z,83.14
2018-07-22T14:07:41.583Z,83.22
2018-07-22T14:10:10.964Z,83.38
2018-07-22T14:12:40.313Z,82.03
2018-07-22T14:15:09.714Z,81.87
2018-07-22T14:17:39.290Z,80.41
2018-07-22T14:20:09.291Z,80.51
2018-07-22T14:22:38.648Z,80.25
2018-07-22T14:25:08.162Z,79.02
2018-07-22T14:27:37.568Z,79.86
2018-07-22T14:30:06.948Z,80.30
2018-07-22T14:32:36.307Z,79.80
2018-07-22T14:35:05.918Z,79.27
2018-07-22T14:37:35.246Z,78.64
2018-07-22T14:40:04.785Z,78.67
2018-07-22T14:42:34.129Z,78.70
2018-07-22T14:45:03.508Z,76.30
2018-07-22T14:47:32.860Z,77.13
2018-07-22T14:50:02.222Z,76.21
2018-07-22T14:52:31.565Z,77.20
2018-07-22T14:55:00.950Z,78.11
2018-07-22T14:57:30.325Z,77.41
2018-07-22T14:59:59.729Z,76.59
2018-07-22T15:02:29.226Z,73.76
2018-07-22T15:04:58.610Z,73.62
2018-07-22T15:07:28.004Z,77.34
2018-07-22T15:09:57.126Z,77.87
2018-07-22T15:12:26.541Z,76.97
2018-07-22T15:14:55.912Z,75.61
2018-07-22T15:17:25.295Z,75.18
2018-07-22T15:19:54.415Z,74.51
2018-07-22T15:22:23.793Z,73.73
2018-07-22T15:24:52.953Z,74.03
2018-07-22T15:27:22.344Z,74.91
2018-07-22T15:29:51.727Z,74.20
2018-07-22T15:32:21.117Z,73.80
2018-07-22T15:34:50.532Z,74.19
2018-07-22T15:37:20.614Z,74.37
2018-07-22T15:39:49.996Z,74.54
2018-07-22T15:42:19.390Z,72.63
2018-07-22T15:44:48.768Z,71.96
2018-07-22T15:47:18.147Z,72.39
2018-07-22T15:49:47.513Z,72.13
2018-07-22T15:52:16.887Z,72.80
2018-07-22T15:54:46.345Z,70.99
2018-07-22T15:57:15.750Z,72.31
2018-07-22T15:59:45.147Z,70.78
2018-07-22T16:02:14.683Z,72.25
2018-07-22T16:04:44.070Z,70.95
2018-07-22T16:07:13.461Z,71.29
2018-07-22T16:09:42.837Z,71.01
2018-07-22T16:12:12.239Z,70.30
2018-07-22T16:14:41.593Z,69.14
2018-07-22T16:17:10.944Z,69.61
2018-07-22T16:19:40.088Z,71.00
2018-07-22T16:22:09.451Z,70.10
2018-07-22T16:24:38.564Z,69.03
2018-07-22T16:27:07.926Z,69.13
2018-07-22T16:29:37.280Z,69.57
2018-07-22T16:32:06.645Z,69.55
2018-07-22T16:34:35.855Z,69.69
2018-07-22T16:37:05.233Z,69.42
2018-07-22T16:39:34.596Z,69.66
2018-07-22T16:42:03.986Z,69.71
2018-07-22T16:44:33.372Z,70.60
2018-07-22T16:47:02.731Z,70.50
2018-07-22T16:49:32.084Z,70.45
2018-07-22T16:52:01.466Z,71.68
2018-07-22T16:54:30.619Z,71.72
2018-07-22T16:56:59.968Z,71.69
2018-07-22T16:59:29.447Z,71.27
2018-07-22T17:01:58.819Z,72.23
2018-07-22T17:04:28.200Z,72.02
2018-07-22T17:06:57.597Z,71.91
2018-07-22T17:09:26.969Z,72.96
2018-07-22T17:11:56.373Z,72.14
2018-07-22T17:14:25.769Z,73.76
2018-07-22T17:16:54.884Z,73.02
2018-07-22T17:19:24.263Z,72.95
2018-07-22T17:21:53.392Z,72.20
2018-07-22T17:24:22.800Z,71.52
2018-07-22T17:26:52.187Z,73.05
2018-07-22T17:29:21.698Z,72.97
2018-07-22T17:31:51.076Z,73.18
2018-07-22T17:34:21.306Z,73.05
2018-07-22T17:36:50.689Z,72.78
2018-07-22T17:39:19.837Z,74.06
2018-07-22T17:41:49.210Z,74.30
2018-07-22T17:44:18.612Z,73.36
2018-07-22T17:46:47.996Z,73.82
2018-07-22T17:49:17.388Z,73.84
2018-07-22T17:51:46.769Z,73.42
2018-07-22T17:54:16.148Z,73.83
2018-07-22T17:56:45.528Z,73.44
2018-07-22T17:59:14.951Z,74.23
2018-07-22T18:01:44.255Z,74.45
2018-07-22T18:04:13.628Z,74.64
2018-07-22T18:06:42.985Z,75.24
2018-07-22T18:09:12.377Z,74.11
2018-07-22T18:11:41.778Z,74.73
2018-07-22T18:14:11.153Z,76.00
2018-07-22T18:16:40.239Z,75.78
2018-07-22T18:19:09.619Z,76.34
2018-07-22T18:21:38.726Z,76.54
2018-07-22T18:24:08.625Z,77.58
2018-07-22T18:26:37.741Z,77.32
2018-07-22T18:29:07.251Z,77.69
2018-07-22T18:31:36.629Z,77.79
2018-07-22T18:34:05.796Z,77.71
2018-07-22T18:36:35.154Z,77.50
2018-07-22T18:39:06.585Z,78.67
2018-07-22T18:41:35.968Z,79.16
2018-07-22T18:44:05.839Z,80.09
2018-07-22T18:46:35.415Z,80.47
2018-07-22T18:49:04.807Z,81.03
2018-07-22T18:51:34.192Z,81.96
2018-07-22T18:54:03.430Z,81.51
2018-07-22T18:56:32.807Z,81.68
2018-07-22T18:59:02.196Z,82.54
2018-07-22T19:01:31.322Z,82.87
2018-07-22T19:04:00.692Z,82.64
2018-07-22T19:06:29.812Z,82.50
2018-07-22T19:08:59.205Z,83.50
2018-07-22T19:11:28.598Z,83.53
2018-07-22T19:13:57.716Z,83.71
2018-07-22T19:16:27.100Z,83.33
2018-07-22T19:18:56.460Z,83.37
2018-07-22T19:21:25.831Z,83.48
2018-07-22T19:23:55.239Z,83.60
2018-07-22T19:26:24.633Z,83.77
2018-07-22T19:28:54.043Z,84.48
2018-07-22T19:31:23.418Z,84.09
2018-07-22T19:33:52.807Z,84.04
2018-07-22T19:36:21.943Z,84.54
2018-07-22T19:38:51.313Z,84.81
2018-07-22T19:41:20.688Z,84.77
2018-07-22T19:43:50.077Z,84.35
2018-07-22T19:46:19.508Z,84.36
2018-07-22T19:48:48.853Z,84.38
2018-07-22T19:51:18.259Z,85.00
2018-07-22T19:53:47.720Z,85.13
2018-07-22T19:56:17.224Z,85.52
2018-07-22T19:58:46.494Z,85.91
2018-07-22T20:01:16.063Z,85.54
2018-07-22T20:03:45.742Z,85.73
2018-07-22T20:06:15.253Z,85.47
2018-07-22T20:08:44.841Z,85.44
2018-07-22T20:11:14.400Z,85.96
2018-07-22T20:13:44.044Z,86.26
2018-07-22T20:16:13.568Z,86.36
2018-07-22T20:18:43.143Z,85.95
2018-07-22T20:21:12.655Z,86.21
2018-07-22T20:23:42.225Z,86.36
2018-07-22T20:26:11.775Z,85.93
2018-07-22T20:28:41.218Z,86.00
2018-07-22T20:31:10.861Z,86.09
2018-07-22T20:33:40.374Z,86.01
2018-07-22T20:36:10.081Z,86.21
2018-07-22T20:38:39.726Z,86.83
2018-07-22T20:41:09.214Z,86.56
2018-07-22T20:43:38.775Z,86.13
2018-07-22T20:46:08.930Z,86.46
2018-07-22T20:48:38.404Z,86.73
2018-07-22T20:51:08.217Z,86.87
2018-07-22T20:53:37.433Z,86.42
2018-07-22T20:56:07.090Z,86.53
2018-07-22T20:58:36.595Z,86.34
2018-07-22T21:01:07.256Z,86.85
2018-07-22T21:03:36.997Z,86.57
2018-07-22T21:06:06.579Z,86.62
2018-07-22T21:08:36.080Z,87.13
2018-07-22T21:11:05.761Z,87.32
2018-07-22T21:13:35.272Z,87.88
2018-07-22T21:16:04.707Z,87.93
2018-07-22T21:18:34.195Z,87.67
2018-07-22T21:21:04.029Z,87.22
2018-07-22T21:23:33.485Z,87.26
2018-07-22T21:26:03.167Z,87.84
2018-07-22T21:28:32.827Z,86.98
2018-07-22T21:31:02.362Z,87.54
2018-07-22T21:33:31.892Z,87.40
2018-07-22T21:36:01.140Z,88.05
2018-07-22T21:38:30.813Z,88.11
2018-07-22T21:41:00.239Z,87.18
2018-07-22T21:43:29.644Z,87.13
2018-07-22T21:45:59.023Z,87.90
2018-07-22T21:48:28.421Z,87.53
2018-07-22T21:50:57.829Z,87.23
2018-07-22T21:53:27.229Z,86.85
2018-07-22T21:55:56.620Z,86.12
2018-07-22T21:58:26.015Z,87.20
2018-07-22T22:00:55.124Z,86.59
2018-07-22T22:03:24.500Z,86.81
2018-07-22T22:05:53.860Z,85.95
2018-07-22T22:08:23.237Z,86.35
2018-07-22T22:10:52.614Z,86.35
2018-07-22T22:13:21.733Z,86.02
2018-07-22T22:15:51.108Z,86.70
2018-07-22T22:18:20.472Z,86.30
2018-07-22T22:20:49.851Z,86.91
2018-07-22T22:23:19.232Z,86.60
2018-07-22T22:25:48.607Z,86.04
2018-07-22T22:28:17.992Z,86.06
2018-07-22T22:30:47.359Z,86.29
2018-07-22T22:33:16.736Z,86.15
2018-07-22T22:35:46.120Z,86.26
2018-07-22T22:38:15.265Z,86.12
2018-07-22T22:40:44.601Z,85.97
2018-07-22T22:43:13.976Z,85.43
2018-07-22T22:45:43.338Z,85.75
2018-07-22T22:48:12.715Z,85.04
2018-07-22T22:50:42.084Z,85.17
2018-07-22T22:53:11.458Z,85.28
2018-07-22T22:55:40.828Z,85.04
2018-07-22T22:58:27.302Z,85.85
2018-07-22T23:00:56.715Z,86.86
2018-07-22T23:03:26.118Z,87.33
2018-07-22T23:05:55.513Z,87.38
2018-07-22T23:08:24.988Z,87.71
2018-07-22T23:10:54.088Z,87.95
2018-07-22T23:13:23.508Z,87.78
2018-07-22T23:15:52.960Z,87.72
2018-07-22T23:18:22.361Z,87.57
2018-07-22T23:20:51.764Z,87.79
2018-07-22T23:23:21.180Z,87.72
2018-07-22T23:25:50.579Z,87.73
2018-07-22T23:28:19.975Z,87.62
2018-07-22T23:30:49.368Z,87.42
2018-07-22T23:33:18.589Z,87.50
2018-07-22T23:35:47.983Z,87.16
2018-07-22T23:38:17.388Z,87.43
2018-07-22T23:40:46.787Z,88.12
2018-07-22T23:43:16.191Z,87.70
2018-07-22T23:45:45.600Z,87.78
2018-07-22T23:48:15.015Z,88.89
2018-07-22T23:50:44.417Z,88.53
2018-07-22T23:53:13.785Z,88.37
2018-07-22T23:55:43.178Z,88.29
2018-07-22T23:58:12.568Z,88.49
